createdAt,value
2023-03-16T00:02:10.738Z,5.20
2023-03-16T00:04:38.627Z,5.20
2023-03-16T00:07:10.252Z,5.10
2023-03-16T00:09:41.299Z,5.10
2023-03-16T00:12:15.816Z,5.10
2023-03-16T00:14:48.448Z,5.00
2023-03-16T00:17:21.141Z,5.00
2023-03-16T00:19:55.107Z,5.00
2023-03-16T00:22:24.245Z,5.00
2023-03-16T00:24:52.758Z,4.90
2023-03-16T00:27:23.043Z,4.90
2023-03-16T00:29:55.899Z,4.80
2023-03-16T00:32:28.818Z,4.80
2023-03-16T00:34:56.073Z,4.80
2023-03-16T00:37:24.161Z,4.80
2023-03-16T00:39:51.825Z,4.70
2023-03-16T00:42:20.143Z,4.70
2023-03-16T00:44:47.071Z,4.60
2023-03-16T00:47:14.690Z,4.50
2023-03-16T00:49:43.442Z,4.50
2023-03-16T00:52:14.893Z,4.50
2023-03-16T00:54:46.054Z,4.50
2023-03-16T00:57:18.994Z,4.50
2023-03-16T00:59:46.757Z,4.50
2023-03-16T01:02:14.925Z,4.40
2023-03-16T01:04:42.128Z,4.40
2023-03-16T01:07:12.571Z,4.30
2023-03-16T01:09:43.333Z,4.30
2023-03-16T01:12:14.834Z,4.20
2023-03-16T01:14:42.499Z,4.20
2023-03-16T01:17:09.845Z,4.10
2023-03-16T01:19:37.791Z,4.10
2023-03-16T01:22:06.396Z,4.10
2023-03-16T01:24:34.896Z,4.00
2023-03-16T01:27:02.333Z,3.90
2023-03-16T01:29:29.891Z,3.80
2023-03-16T01:31:57.048Z,3.70
2023-03-16T01:34:24.023Z,3.70
2023-03-16T01:36:52.047Z,3.60
2023-03-16T01:39:18.973Z,3.60
2023-03-16T01:41:47.057Z,3.60
2023-03-16T01:44:17.486Z,3.50
2023-03-16T01:46:44.709Z,3.60
2023-03-16T01:49:17.389Z,3.50
2023-03-16T01:51:52.168Z,3.50
2023-03-16T01:54:24.899Z,3.40
2023-03-16T01:57:15.113Z,3.30
2023-03-16T01:59:48.310Z,3.30
2023-03-16T02:02:18.939Z,3.20
2023-03-16T02:04:54.411Z,3.10
2023-03-16T02:07:24.796Z,3.00
2023-03-16T02:09:56.313Z,3.00
2023-03-16T02:12:23.527Z,2.90
2023-03-16T02:14:51.619Z,2.70
2023-03-16T02:17:25.396Z,2.60
2023-03-16T02:20:08.935Z,2.60
2023-03-16T02:22:39.383Z,2.50
2023-03-16T02:25:06.823Z,2.40
2023-03-16T02:28:11.581Z,2.30
2023-03-16T02:30:38.773Z,2.20
2023-03-16T02:33:06.195Z,2.30
2023-03-16T02:35:34.074Z,2.20
2023-03-16T02:38:01.950Z,2.20
2023-03-16T02:40:31.252Z,2.10
2023-03-16T02:43:14.661Z,2.10
2023-03-16T02:45:51.317Z,2.00
2023-03-16T02:48:33.778Z,2.00
2023-03-16T02:51:00.909Z,1.90
2023-03-16T02:53:27.872Z,1.90
2023-03-16T02:55:54.774Z,1.90
2023-03-16T02:58:21.709Z,1.90
2023-03-16T03:00:48.589Z,1.90
2023-03-16T03:03:15.569Z,1.80
2023-03-16T03:05:42.651Z,1.80
2023-03-16T03:08:09.522Z,1.80
2023-03-16T03:10:36.443Z,1.80
2023-03-16T03:13:03.371Z,1.90
2023-03-16T03:15:30.268Z,1.90
2023-03-16T03:17:57.161Z,1.90
2023-03-16T03:20:24.057Z,2.00
2023-03-16T03:22:52.703Z,2.10
2023-03-16T03:25:20.732Z,2.10
2023-03-16T03:27:49.012Z,2.10
2023-03-16T03:30:21.201Z,2.10
2023-03-16T03:32:48.778Z,2.10
2023-03-16T03:35:16.647Z,2.20
2023-03-16T03:37:44.419Z,2.20
2023-03-16T03:40:14.436Z,2.20
2023-03-16T03:42:43.389Z,2.20
2023-03-16T03:45:14.319Z,2.20
2023-03-16T03:47:44.661Z,2.30
2023-03-16T03:50:13.876Z,2.30
2023-03-16T03:52:41.203Z,2.40
2023-03-16T03:55:09.012Z,2.40
2023-03-16T03:57:36.093Z,2.40
2023-03-16T04:00:07.969Z,2.50
2023-03-16T04:02:35.192Z,2.50
2023-03-16T04:05:02.228Z,2.50
2023-03-16T04:07:29.130Z,2.60
2023-03-16T04:09:56.031Z,2.60
2023-03-16T04:12:23.449Z,2.60
2023-03-16T04:14:51.697Z,2.60
2023-03-16T04:17:18.664Z,2.60
2023-03-16T04:19:45.568Z,2.60
2023-03-16T04:22:13.396Z,2.60
2023-03-16T04:24:40.537Z,2.60
2023-03-16T04:27:07.642Z,2.60
2023-03-16T04:29:34.630Z,2.50
2023-03-16T04:32:01.517Z,2.60
2023-03-16T04:34:28.458Z,2.60
2023-03-16T04:36:55.364Z,2.60
2023-03-16T04:39:22.624Z,2.60
2023-03-16T04:41:49.974Z,2.50
2023-03-16T04:44:17.393Z,2.50
2023-03-16T04:46:44.337Z,2.50
2023-03-16T04:49:11.361Z,2.40
2023-03-16T04:51:40.761Z,2.40
2023-03-16T04:54:08.131Z,2.30
2023-03-16T04:56:35.098Z,2.30
2023-03-16T04:59:02.071Z,2.20
2023-03-16T05:01:28.999Z,2.20
2023-03-16T05:03:57.489Z,2.10
2023-03-16T05:06:25.511Z,2.00
2023-03-16T05:08:52.435Z,2.00
2023-03-16T05:11:19.371Z,2.00
2023-03-16T05:13:46.241Z,1.90
2023-03-16T05:16:13.184Z,1.80
2023-03-16T05:18:40.099Z,1.80
2023-03-16T05:21:07.023Z,1.80
2023-03-16T05:23:34.071Z,1.80
2023-03-16T05:26:01.200Z,1.80
2023-03-16T05:28:28.187Z,1.80
2023-03-16T05:30:56.363Z,1.90
2023-03-16T05:33:23.372Z,2.00
2023-03-16T05:35:51.377Z,2.20
2023-03-16T05:38:18.451Z,2.30
2023-03-16T05:40:46.296Z,2.40
2023-03-16T05:43:13.534Z,2.50
2023-03-16T05:45:40.440Z,2.70
2023-03-16T05:48:07.445Z,2.90
2023-03-16T05:50:34.634Z,3.10
2023-03-16T05:53:01.614Z,3.30
2023-03-16T05:55:28.645Z,3.50
2023-03-16T05:57:55.708Z,3.70
2023-03-16T06:00:23.236Z,3.90
2023-03-16T06:02:54.059Z,4.20
2023-03-16T06:05:22.201Z,4.50
2023-03-16T06:07:50.264Z,4.70
2023-03-16T06:10:17.743Z,5.00
2023-03-16T06:12:44.912Z,5.20
2023-03-16T06:15:12.286Z,5.40
2023-03-16T06:17:41.537Z,5.80
2023-03-16T06:20:11.524Z,6.10
2023-03-16T06:22:40.176Z,6.50
2023-03-16T06:25:08.131Z,6.90
2023-03-16T06:27:35.432Z,7.40
2023-03-16T06:30:02.459Z,7.80
2023-03-16T06:32:29.434Z,8.00
2023-03-16T06:34:59.604Z,8.30
2023-03-16T06:37:26.580Z,8.50
2023-03-16T06:39:53.924Z,8.80
2023-03-16T06:42:20.915Z,9.00
2023-03-16T06:44:48.033Z,9.30
2023-03-16T06:47:14.976Z,9.60
2023-03-16T06:49:41.948Z,9.70
2023-03-16T06:52:10.662Z,9.90
2023-03-16T06:54:37.714Z,10.10
2023-03-16T06:57:04.686Z,10.30
2023-03-16T06:59:31.619Z,10.50
2023-03-16T07:01:58.771Z,10.80
2023-03-16T07:04:25.715Z,11.00
2023-03-16T07:06:52.691Z,11.30
2023-03-16T07:09:19.828Z,11.30
2023-03-16T07:11:46.702Z,11.30
2023-03-16T07:14:13.688Z,11.70
2023-03-16T07:16:40.856Z,11.90
2023-03-16T07:19:07.744Z,12.30
2023-03-16T07:21:40.013Z,12.50
2023-03-16T07:24:08.987Z,12.50
2023-03-16T07:26:36.477Z,12.70
2023-03-16T07:29:06.360Z,12.90
2023-03-16T07:31:34.732Z,13.20
2023-03-16T07:34:02.661Z,13.40
2023-03-16T07:36:29.618Z,13.40
2023-03-16T07:38:56.597Z,13.50
2023-03-16T07:41:23.542Z,13.70
2023-03-16T07:43:50.542Z,13.90
2023-03-16T07:46:17.768Z,13.60
2023-03-16T07:48:45.455Z,13.50
2023-03-16T07:51:13.991Z,13.70
2023-03-16T07:53:40.923Z,14.10
2023-03-16T07:56:08.546Z,14.30
2023-03-16T07:58:35.446Z,14.40
2023-03-16T08:01:02.573Z,14.60
2023-03-16T08:03:29.942Z,14.80
2023-03-16T08:05:56.914Z,15.10
2023-03-16T08:08:24.017Z,15.20
2023-03-16T08:10:53.166Z,15.20
2023-03-16T08:13:22.475Z,15.40
2023-03-16T08:15:56.017Z,15.40
2023-03-16T08:18:23.943Z,15.40
2023-03-16T08:20:50.832Z,15.80
2023-03-16T08:23:17.817Z,15.90
2023-03-16T08:25:44.901Z,16.10
2023-03-16T08:28:12.753Z,16.30
2023-03-16T08:30:46.973Z,16.40
2023-03-16T08:33:14.052Z,16.40
2023-03-16T08:35:44.937Z,16.10
2023-03-16T08:38:12.459Z,16.30
2023-03-16T08:40:42.221Z,16.30
2023-03-16T08:43:09.379Z,16.50
2023-03-16T08:45:36.954Z,16.70
2023-03-16T08:48:05.133Z,16.80
2023-03-16T08:50:32.096Z,16.70
2023-03-16T08:52:59.466Z,16.50
2023-03-16T08:55:26.638Z,16.60
2023-03-16T08:57:53.496Z,17.00
2023-03-16T09:00:20.917Z,17.20
2023-03-16T09:02:48.040Z,17.30
2023-03-16T09:05:16.062Z,17.40
2023-03-16T09:07:43.796Z,17.30
2023-03-16T09:10:16.215Z,17.40
2023-03-16T09:12:43.977Z,17.50
2023-03-16T09:15:13.863Z,17.70
2023-03-16T09:17:41.833Z,17.90
2023-03-16T09:20:21.821Z,18.10
2023-03-16T09:22:49.549Z,18.10
2023-03-16T09:25:16.576Z,17.70
2023-03-16T09:27:44.789Z,17.10
2023-03-16T09:30:12.367Z,16.80
2023-03-16T09:32:39.692Z,16.70
2023-03-16T09:35:06.994Z,16.80
2023-03-16T09:37:45.008Z,17.00
2023-03-16T09:40:29.199Z,17.00
2023-03-16T09:43:25.690Z,17.10
2023-03-16T09:46:00.745Z,17.30
2023-03-16T09:48:30.725Z,17.20
2023-03-16T09:51:01.070Z,16.90
2023-03-16T09:53:38.392Z,16.50
2023-03-16T09:56:08.486Z,16.30
2023-03-16T09:58:36.712Z,16.30
2023-03-16T10:01:13.471Z,16.40
2023-03-16T10:04:11.072Z,16.60
2023-03-16T10:06:49.598Z,16.50
2023-03-16T10:09:21.697Z,16.40
2023-03-16T10:11:54.114Z,16.20
2023-03-16T10:14:27.535Z,16.20
2023-03-16T10:17:15.994Z,16.30
2023-03-16T10:19:52.028Z,16.20
2023-03-16T10:22:26.577Z,15.70
2023-03-16T10:25:00.028Z,15.20
2023-03-16T10:27:36.777Z,15.00
2023-03-16T10:30:08.141Z,15.00
2023-03-16T10:32:36.717Z,15.10
2023-03-16T10:35:14.296Z,15.30
2023-03-16T10:37:41.374Z,15.30
2023-03-16T10:40:10.836Z,15.10
2023-03-16T10:42:38.094Z,14.50
2023-03-16T10:45:05.755Z,14.30
2023-03-16T10:47:33.848Z,14.20
2023-03-16T10:50:16.926Z,14.50
2023-03-16T10:52:48.155Z,14.70
2023-03-16T10:55:23.263Z,14.50
2023-03-16T10:57:55.792Z,14.60
2023-03-16T11:00:29.015Z,14.60
2023-03-16T11:02:58.554Z,13.70
2023-03-16T11:05:28.604Z,13.50
2023-03-16T11:08:16.634Z,13.70
2023-03-16T11:10:55.538Z,13.90
2023-03-16T11:13:24.801Z,13.60
2023-03-16T11:16:01.738Z,13.30
2023-03-16T11:18:32.667Z,13.20
2023-03-16T11:21:12.939Z,12.80
2023-03-16T11:23:44.522Z,12.90
2023-03-16T11:26:21.318Z,12.90
2023-03-16T11:28:59.301Z,13.00
2023-03-16T11:31:52.205Z,13.20
2023-03-16T11:34:23.777Z,13.20
2023-03-16T11:36:57.746Z,12.90
2023-03-16T11:39:37.740Z,12.80
2023-03-16T11:42:20.864Z,12.90
2023-03-16T11:45:34.020Z,13.10
2023-03-16T11:48:19.319Z,13.10
2023-03-16T11:50:54.472Z,13.10
2023-03-16T11:53:30.709Z,13.10
2023-03-16T11:56:24.133Z,13.10
2023-03-16T11:59:02.945Z,13.10
2023-03-16T12:01:57.942Z,12.80
2023-03-16T12:04:56.691Z,12.60
2023-03-16T12:07:47.890Z,12.60
2023-03-16T12:10:34.014Z,12.70
2023-03-16T12:13:31.077Z,12.60
2023-03-16T12:16:06.738Z,12.40
2023-03-16T12:18:47.906Z,12.30
2023-03-16T12:21:25.185Z,12.00
2023-03-16T12:23:57.653Z,11.90
2023-03-16T12:26:30.190Z,11.90
2023-03-16T12:28:58.608Z,12.00
2023-03-16T12:31:36.473Z,12.20
2023-03-16T12:34:24.397Z,12.10
2023-03-16T12:37:05.902Z,12.20
2023-03-16T12:39:51.644Z,12.40
2023-03-16T12:42:47.472Z,12.50
2023-03-16T12:45:40.821Z,12.50
2023-03-16T12:48:44.839Z,12.40
2023-03-16T12:51:11.774Z,12.30
2023-03-16T12:53:41.057Z,12.30
2023-03-16T12:56:10.649Z,12.10
2023-03-16T12:58:43.634Z,12.10
2023-03-16T13:01:12.735Z,12.20
2023-03-16T13:03:41.357Z,12.30
2023-03-16T13:06:21.825Z,12.20
2023-03-16T13:08:57.868Z,12.30
2023-03-16T13:11:25.446Z,12.40
2023-03-16T13:14:01.638Z,12.50
2023-03-16T13:16:32.049Z,12.40
2023-03-16T13:18:59.374Z,12.40
2023-03-16T13:21:38.579Z,12.40
2023-03-16T13:24:20.597Z,12.50
2023-03-16T13:26:54.157Z,12.60
2023-03-16T13:29:30.900Z,12.80
2023-03-16T13:32:07.705Z,12.80
2023-03-16T13:34:48.242Z,12.60
2023-03-16T13:37:19.610Z,12.40
2023-03-16T13:40:01.827Z,12.00
2023-03-16T13:42:33.744Z,12.10
2023-03-16T13:45:14.327Z,12.30
2023-03-16T13:47:46.093Z,12.40
2023-03-16T13:50:14.846Z,12.50
2023-03-16T13:52:45.615Z,12.40
2023-03-16T13:55:19.650Z,12.40
2023-03-16T13:57:48.450Z,12.40
2023-03-16T14:00:20.592Z,12.40
2023-03-16T14:02:53.339Z,12.40
2023-03-16T14:05:33.356Z,12.40
2023-03-16T14:08:05.072Z,12.40
2023-03-16T14:10:34.914Z,12.40
2023-03-16T14:13:32.488Z,12.40
2023-03-16T14:16:13.293Z,12.20
2023-03-16T14:19:01.819Z,12.10
2023-03-16T14:21:36.155Z,11.90
2023-03-16T14:24:04.876Z,11.80
2023-03-16T14:26:46.614Z,11.70
2023-03-16T14:29:26.006Z,11.80
2023-03-16T14:31:54.452Z,11.90
2023-03-16T14:34:36.081Z,12.00
2023-03-16T14:37:14.864Z,12.00
2023-03-16T14:39:42.790Z,12.10
2023-03-16T14:42:30.431Z,12.10
2023-03-16T14:45:00.005Z,12.10
2023-03-16T14:47:31.065Z,12.10
2023-03-16T14:50:06.228Z,12.00
2023-03-16T14:52:34.082Z,12.00
2023-03-16T14:55:09.197Z,11.90
2023-03-16T14:57:36.638Z,11.80
2023-03-16T15:00:05.606Z,11.80
2023-03-16T15:02:34.287Z,11.80
2023-03-16T15:05:03.023Z,11.80
2023-03-16T15:07:33.706Z,11.80
2023-03-16T15:10:16.732Z,11.80
2023-03-16T15:12:53.981Z,11.60
2023-03-16T15:15:25.163Z,11.50
2023-03-16T15:17:53.331Z,11.30
2023-03-16T15:20:25.733Z,11.30
2023-03-16T15:22:53.777Z,11.30
2023-03-16T15:25:49.978Z,11.20
2023-03-16T15:28:22.405Z,11.10
2023-03-16T15:30:58.126Z,11.10
2023-03-16T15:33:26.005Z,11.10
2023-03-16T15:35:55.977Z,11.10
2023-03-16T15:38:29.213Z,11.20
2023-03-16T15:40:56.422Z,11.20
2023-03-16T15:43:27.368Z,11.20
2023-03-16T15:45:57.448Z,11.10
2023-03-16T15:48:25.493Z,11.10
2023-03-16T15:50:55.581Z,11.00
2023-03-16T15:53:35.706Z,11.00
2023-03-16T15:56:15.012Z,10.90
2023-03-16T15:58:48.155Z,10.90
2023-03-16T16:01:31.301Z,10.80
2023-03-16T16:03:59.282Z,10.70
2023-03-16T16:06:28.933Z,10.70
2023-03-16T16:08:56.139Z,10.70
2023-03-16T16:11:27.261Z,10.70
2023-03-16T16:13:58.284Z,10.60
2023-03-16T16:16:29.051Z,10.60
2023-03-16T16:18:57.000Z,10.50
2023-03-16T16:21:30.965Z,10.50
2023-03-16T16:23:58.371Z,10.50
2023-03-16T16:26:48.282Z,10.40
2023-03-16T16:29:23.023Z,10.40
2023-03-16T16:31:51.733Z,10.30
2023-03-16T16:34:21.532Z,10.20
2023-03-16T16:36:49.042Z,10.10
2023-03-16T16:39:16.225Z,10.10
2023-03-16T16:41:44.293Z,10.00
2023-03-16T16:44:28.131Z,10.00
2023-03-16T16:46:55.669Z,9.90
2023-03-16T16:49:25.946Z,9.80
2023-03-16T16:51:53.784Z,9.80
2023-03-16T16:54:25.864Z,9.70
2023-03-16T16:56:55.709Z,9.60
2023-03-16T16:59:28.707Z,9.60
2023-03-16T17:01:57.051Z,9.50
2023-03-16T17:04:27.774Z,9.50
2023-03-16T17:06:58.775Z,9.40
2023-03-16T17:09:27.330Z,9.30
2023-03-16T17:11:59.233Z,9.20
2023-03-16T17:14:31.535Z,9.10
2023-03-16T17:17:03.707Z,9.00
2023-03-16T17:19:30.865Z,8.90
2023-03-16T17:22:00.081Z,8.80
2023-03-16T17:24:28.814Z,8.70
2023-03-16T17:26:59.419Z,8.60
2023-03-16T17:29:33.203Z,8.40
2023-03-16T17:32:02.953Z,8.40
2023-03-16T17:34:33.316Z,8.30
2023-03-16T17:37:02.028Z,8.20
2023-03-16T17:39:32.163Z,8.00
2023-03-16T17:42:12.110Z,7.90
2023-03-16T17:44:51.333Z,7.80
2023-03-16T17:47:26.136Z,7.60
2023-03-16T17:49:54.475Z,7.50
2023-03-16T17:52:25.918Z,7.30
2023-03-16T17:54:54.860Z,7.10
2023-03-16T17:57:31.843Z,7.10
2023-03-16T18:00:04.652Z,7.00
2023-03-16T18:03:01.056Z,6.90
2023-03-16T18:05:31.682Z,6.80
2023-03-16T18:08:28.060Z,6.70
2023-03-16T18:11:10.133Z,6.50
2023-03-16T18:13:43.301Z,6.40
2023-03-16T18:16:23.701Z,6.30
2023-03-16T18:19:03.089Z,6.40
2023-03-16T18:21:31.394Z,6.30
2023-03-16T18:23:59.610Z,6.20
2023-03-16T18:26:32.037Z,6.30
2023-03-16T18:29:01.043Z,6.50
2023-03-16T18:31:28.898Z,6.60
2023-03-16T18:34:00.179Z,6.60
2023-03-16T18:36:34.335Z,6.90
2023-03-16T18:39:06.391Z,7.10
2023-03-16T18:41:36.704Z,7.10
2023-03-16T18:44:20.745Z,7.00
2023-03-16T18:46:51.193Z,6.90
2023-03-16T18:49:30.827Z,6.80
2023-03-16T18:51:59.121Z,6.80
2023-03-16T18:54:29.260Z,6.70
2023-03-16T18:57:00.739Z,6.60
2023-03-16T18:59:29.606Z,6.60
2023-03-16T19:01:58.644Z,6.50
2023-03-16T19:04:30.675Z,6.60
2023-03-16T19:06:59.132Z,6.50
2023-03-16T19:09:30.768Z,6.30
2023-03-16T19:12:00.517Z,6.20
2023-03-16T19:14:33.757Z,6.00
2023-03-16T19:17:02.510Z,5.80
2023-03-16T19:19:30.678Z,5.80
2023-03-16T19:22:10.345Z,5.50
2023-03-16T19:24:56.897Z,5.30
2023-03-16T19:27:37.582Z,5.20
2023-03-16T19:30:07.130Z,5.20
2023-03-16T19:32:36.648Z,5.00
2023-03-16T19:35:07.936Z,5.00
2023-03-16T19:37:37.317Z,4.90
2023-03-16T19:40:05.940Z,4.90
2023-03-16T19:42:35.166Z,4.80
2023-03-16T19:45:04.887Z,4.70
2023-03-16T19:47:36.128Z,4.70
2023-03-16T19:50:16.381Z,4.60
2023-03-16T19:52:44.370Z,4.60
2023-03-16T19:55:21.175Z,4.40
2023-03-16T19:57:58.350Z,4.30
2023-03-16T20:00:27.578Z,4.20
2023-03-16T20:02:57.912Z,4.20
2023-03-16T20:05:29.913Z,4.20
2023-03-16T20:08:00.372Z,4.30
2023-03-16T20:10:31.280Z,4.30
2023-03-16T20:13:01.264Z,4.30
2023-03-16T20:15:35.737Z,4.20
2023-03-16T20:18:03.889Z,4.10
2023-03-16T20:20:35.924Z,4.10
2023-03-16T20:23:03.753Z,4.10
2023-03-16T20:25:33.458Z,4.10
2023-03-16T20:28:03.202Z,4.00
2023-03-16T20:30:32.691Z,3.90
2023-03-16T20:33:00.569Z,3.90
2023-03-16T20:35:31.906Z,3.80
2023-03-16T20:38:01.390Z,3.70
2023-03-16T20:40:30.684Z,3.60
2023-03-16T20:42:58.036Z,3.60
2023-03-16T20:45:28.970Z,3.50
2023-03-16T20:47:57.288Z,3.50
2023-03-16T20:50:31.878Z,3.40
2023-03-16T20:53:01.384Z,3.30
2023-03-16T20:55:29.832Z,3.30
2023-03-16T20:57:58.219Z,3.20
2023-03-16T21:00:34.866Z,3.10
2023-03-16T21:03:14.256Z,3.00
2023-03-16T21:05:41.722Z,3.00
2023-03-16T21:08:09.102Z,3.00
2023-03-16T21:10:38.020Z,3.10
2023-03-16T21:13:06.118Z,3.20
2023-03-16T21:15:34.399Z,3.40
2023-03-16T21:18:04.910Z,3.50
2023-03-16T21:20:34.061Z,3.60
2023-03-16T21:23:01.521Z,3.50
2023-03-16T21:25:32.746Z,3.50
2023-03-16T21:28:03.202Z,3.40
2023-03-16T21:30:33.705Z,3.20
2023-03-16T21:33:02.050Z,3.10
2023-03-16T21:35:37.306Z,3.00
2023-03-16T21:38:14.489Z,3.00
2023-03-16T21:40:41.577Z,3.00
2023-03-16T21:43:11.449Z,2.90
2023-03-16T21:45:40.151Z,2.80
2023-03-16T21:48:12.224Z,2.60
2023-03-16T21:50:39.989Z,2.60
2023-03-16T21:53:25.945Z,2.50
2023-03-16T21:55:54.656Z,2.40
2023-03-16T21:58:23.341Z,2.40
2023-03-16T22:00:52.774Z,2.40
2023-03-16T22:03:47.941Z,2.40
2023-03-16T22:06:17.168Z,2.30
2023-03-16T22:08:44.183Z,2.30
2023-03-16T22:11:20.088Z,2.20
2023-03-16T22:13:47.319Z,2.20
2023-03-16T22:16:20.461Z,2.10
2023-03-16T22:18:49.484Z,2.10
2023-03-16T22:21:22.691Z,2.10
2023-03-16T22:23:49.825Z,2.00
2023-03-16T22:26:19.255Z,1.90
2023-03-16T22:28:50.877Z,1.90
2023-03-16T22:31:24.260Z,1.80
2023-03-16T22:33:51.393Z,1.80
2023-03-16T22:36:21.322Z,1.80
2023-03-16T22:39:00.083Z,1.80
2023-03-16T22:41:28.545Z,1.80
2023-03-16T22:43:56.514Z,1.80
2023-03-16T22:46:26.274Z,1.80
2023-03-16T22:48:54.677Z,1.80
2023-03-16T22:51:32.856Z,1.80
2023-03-16T22:54:03.518Z,1.70
2023-03-16T22:56:32.167Z,1.60
2023-03-16T22:59:02.922Z,1.60
2023-03-16T23:01:38.456Z,1.60
2023-03-16T23:04:20.024Z,1.50
2023-03-16T23:06:52.833Z,1.60
2023-03-16T23:09:21.949Z,1.60
2023-03-16T23:11:53.986Z,1.60
2023-03-16T23:14:29.127Z,1.50
2023-03-16T23:16:56.817Z,1.50
2023-03-16T23:19:34.685Z,1.50
2023-03-16T23:22:06.885Z,1.50
2023-03-16T23:24:35.132Z,1.60
2023-03-16T23:27:02.769Z,1.70
2023-03-16T23:29:30.494Z,1.60
2023-03-16T23:31:58.006Z,1.90
2023-03-16T23:34:26.298Z,1.60
2023-03-16T23:36:53.308Z,1.60
2023-03-16T23:39:20.217Z,1.50
2023-03-16T23:41:49.842Z,1.40
2023-03-16T23:44:22.444Z,1.30
2023-03-16T23:46:49.924Z,1.30
2023-03-16T23:49:24.400Z,1.30
2023-03-16T23:51:52.410Z,1.30
2023-03-16T23:54:25.651Z,1.30
2023-03-16T23:56:52.680Z,1.30
2023-03-16T23:59:21.021Z,1.30
